Terminal Aerodrome Forecast
Issued by NWS

Home | Current Version | Previous Version | Text Only | Print | Product List | Glossary On
Versions: 1 2 3 4 5 6 7 8 9 10 11 12 13 14 15 16 17 18 19 20 21 22 23 24 25 26 27 28 29 30 31 32
000
FTUS45 KBOU 300541
TAFAPA
TAF
KAPA 300541Z 3006/3106 20010KT P6SM SCT140
     FM301800 22008KT P6SM FEW090 SCT140
     FM302000 16010KT P6SM VCTS SCT090 BKN140 PROB30 3022/3102
      VRB15G25KT BKN070CB
     FM310400 18008KT P6SM SCT090 BKN140=

USA.gov is the U.S. government's official web portal to all federal, state and local government web resources and services.